sensor_id;sensor_type;location;lat;lon;timestamp;P1;durP1;ratioP1;P2;durP2;ratioP2
13611;SDS011;6877;51.436;6.774;2023-06-22T00:01:25;12.60;;;7.72;;
13611;SDS011;6877;51.436;6.774;2023-06-22T00:03:52;11.80;;;7.15;;
13611;SDS011;6877;51.436;6.774;2023-06-22T00:06:18;9.15;;;6.72;;
13611;SDS011;6877;51.436;6.774;2023-06-22T00:08:50;11.07;;;6.75;;
13611;SDS011;6877;51.436;6.774;2023-06-22T00:11:16;7.63;;;6.18;;
13611;SDS011;6877;51.436;6.774;2023-06-22T00:13:43;12.13;;;7.35;;
13611;SDS011;6877;51.436;6.774;2023-06-22T00:16:09;15.30;;;7.65;;
13611;SDS011;6877;51.436;6.774;2023-06-22T00:18:35;14.07;;;7.97;;
13611;SDS011;6877;51.436;6.774;2023-06-22T00:21:02;11.55;;;7.70;;
13611;SDS011;6877;51.436;6.774;2023-06-22T00:23:33;11.43;;;7.70;;
13611;SDS011;6877;51.436;6.774;2023-06-22T00:26:05;11.07;;;5.72;;
13611;SDS011;6877;51.436;6.774;2023-06-22T00:28:32;12.13;;;6.65;;
13611;SDS011;6877;51.436;6.774;2023-06-22T00:31:03;10.20;;;7.60;;
13611;SDS011;6877;51.436;6.774;2023-06-22T00:33:29;11.02;;;6.97;;
13611;SDS011;6877;51.436;6.774;2023-06-22T00:36:01;12.07;;;7.55;;
13611;SDS011;6877;51.436;6.774;2023-06-22T00:38:29;6.93;;;5.03;;
13611;SDS011;6877;51.436;6.774;2023-06-22T00:40:55;14.90;;;7.53;;
13611;SDS011;6877;51.436;6.774;2023-06-22T00:43:22;10.10;;;7.00;;
13611;SDS011;6877;51.436;6.774;2023-06-22T00:45:48;12.93;;;7.82;;
13611;SDS011;6877;51.436;6.774;2023-06-22T00:48:15;11.52;;;6.82;;
13611;SDS011;6877;51.436;6.774;2023-06-22T00:50:41;12.50;;;6.53;;
13611;SDS011;6877;51.436;6.774;2023-06-22T00:53:08;11.60;;;7.05;;
13611;SDS011;6877;51.436;6.774;2023-06-22T00:55:37;12.68;;;7.63;;
13611;SDS011;6877;51.436;6.774;2023-06-22T00:58:13;10.65;;;6.65;;
13611;SDS011;6877;51.436;6.774;2023-06-22T01:00:40;10.25;;;7.07;;
13611;SDS011;6877;51.436;6.774;2023-06-22T01:03:12;8.35;;;5.80;;
13611;SDS011;6877;51.436;6.774;2023-06-22T01:05:39;10.50;;;7.30;;
13611;SDS011;6877;51.436;6.774;2023-06-22T01:10:47;11.05;;;6.90;;
13611;SDS011;6877;51.436;6.774;2023-06-22T01:16:39;12.38;;;8.00;;
13611;SDS011;6877;51.436;6.774;2023-06-22T01:19:21;13.15;;;7.75;;
13611;SDS011;6877;51.436;6.774;2023-06-22T01:22:04;14.07;;;7.15;;
13611;SDS011;6877;51.436;6.774;2023-06-22T01:25:28;9.18;;;6.53;;
13611;SDS011;6877;51.436;6.774;2023-06-22T01:30:39;11.13;;;6.82;;
13611;SDS011;6877;51.436;6.774;2023-06-22T01:33:06;9.45;;;5.45;;
13611;SDS011;6877;51.436;6.774;2023-06-22T01:35:37;11.68;;;7.07;;
13611;SDS011;6877;51.436;6.774;2023-06-22T01:38:09;7.88;;;5.72;;
13611;SDS011;6877;51.436;6.774;2023-06-22T01:40:36;13.38;;;9.23;;
13611;SDS011;6877;51.436;6.774;2023-06-22T01:43:03;15.63;;;8.45;;
13611;SDS011;6877;51.436;6.774;2023-06-22T01:45:36;13.52;;;8.68;;
13611;SDS011;6877;51.436;6.774;2023-06-22T01:48:02;10.07;;;8.38;;
13611;SDS011;6877;51.436;6.774;2023-06-22T01:50:29;12.85;;;7.30;;
13611;SDS011;6877;51.436;6.774;2023-06-22T01:52:55;17.10;;;10.02;;
13611;SDS011;6877;51.436;6.774;2023-06-22T01:55:22;13.10;;;9.43;;
13611;SDS011;6877;51.436;6.774;2023-06-22T01:57:54;10.73;;;7.93;;
13611;SDS011;6877;51.436;6.774;2023-06-22T02:00:21;13.90;;;7.55;;
13611;SDS011;6877;51.436;6.774;2023-06-22T02:03:55;12.10;;;8.45;;
13611;SDS011;6877;51.436;6.774;2023-06-22T02:06:03;12.68;;;7.60;;
13611;SDS011;6877;51.436;6.774;2023-06-22T02:08:36;14.52;;;9.38;;
13611;SDS011;6877;51.436;6.774;2023-06-22T02:11:12;13.88;;;9.05;;
13611;SDS011;6877;51.436;6.774;2023-06-22T02:13:41;13.55;;;9.55;;
13611;SDS011;6877;51.436;6.774;2023-06-22T02:16:14;9.50;;;7.97;;
13611;SDS011;6877;51.436;6.774;2023-06-22T02:18:47;12.30;;;8.82;;
13611;SDS011;6877;51.436;6.774;2023-06-22T02:21:17;11.15;;;8.10;;
13611;SDS011;6877;51.436;6.774;2023-06-22T02:23:44;12.93;;;8.35;;
13611;SDS011;6877;51.436;6.774;2023-06-22T02:26:10;12.30;;;8.65;;
13611;SDS011;6877;51.436;6.774;2023-06-22T02:28:37;14.70;;;9.75;;
13611;SDS011;6877;51.436;6.774;2023-06-22T02:31:08;15.48;;;8.68;;
13611;SDS011;6877;51.436;6.774;2023-06-22T02:33:35;14.20;;;9.35;;
13611;SDS011;6877;51.436;6.774;2023-06-22T02:36:06;13.73;;;9.57;;
13611;SDS011;6877;51.436;6.774;2023-06-22T02:38:35;15.98;;;9.88;;
13611;SDS011;6877;51.436;6.774;2023-06-22T02:41:02;11.05;;;8.40;;
13611;SDS011;6877;51.436;6.774;2023-06-22T02:43:29;18.08;;;8.75;;
13611;SDS011;6877;51.436;6.774;2023-06-22T02:45:55;14.95;;;9.60;;
13611;SDS011;6877;51.436;6.774;2023-06-22T02:48:22;18.63;;;9.88;;
13611;SDS011;6877;51.436;6.774;2023-06-22T02:50:48;14.98;;;10.30;;
13611;SDS011;6877;51.436;6.774;2023-06-22T02:53:15;15.38;;;10.93;;
13611;SDS011;6877;51.436;6.774;2023-06-22T02:55:46;15.77;;;10.65;;
13611;SDS011;6877;51.436;6.774;2023-06-22T02:58:12;19.02;;;10.45;;
13611;SDS011;6877;51.436;6.774;2023-06-22T03:00:39;13.70;;;8.77;;
13611;SDS011;6877;51.436;6.774;2023-06-22T03:03:10;19.48;;;9.43;;
13611;SDS011;6877;51.436;6.774;2023-06-22T03:05:37;17.00;;;8.90;;
13611;SDS011;6877;51.436;6.774;2023-06-22T03:08:03;13.45;;;9.85;;
13611;SDS011;6877;51.436;6.774;2023-06-22T03:10:37;17.20;;;9.75;;
13611;SDS011;6877;51.436;6.774;2023-06-22T03:13:04;17.58;;;11.30;;
13611;SDS011;6877;51.436;6.774;2023-06-22T03:15:30;12.40;;;9.40;;
13611;SDS011;6877;51.436;6.774;2023-06-22T03:17:58;14.73;;;10.43;;
13611;SDS011;6877;51.436;6.774;2023-06-22T03:20:30;13.48;;;9.63;;
13611;SDS011;6877;51.436;6.774;2023-06-22T03:22:59;16.10;;;10.75;;
13611;SDS011;6877;51.436;6.774;2023-06-22T03:25:26;14.60;;;9.52;;
13611;SDS011;6877;51.436;6.774;2023-06-22T03:27:57;20.05;;;11.77;;
13611;SDS011;6877;51.436;6.774;2023-06-22T03:30:24;16.80;;;10.77;;
13611;SDS011;6877;51.436;6.774;2023-06-22T03:32:55;17.92;;;11.23;;
13611;SDS011;6877;51.436;6.774;2023-06-22T03:35:21;15.52;;;11.77;;
13611;SDS011;6877;51.436;6.774;2023-06-22T03:37:48;17.20;;;9.57;;
13611;SDS011;6877;51.436;6.774;2023-06-22T03:40:15;15.05;;;10.57;;
13611;SDS011;6877;51.436;6.774;2023-06-22T03:42:46;15.13;;;10.82;;
13611;SDS011;6877;51.436;6.774;2023-06-22T03:45:13;13.68;;;10.68;;
13611;SDS011;6877;51.436;6.774;2023-06-22T03:47:39;16.58;;;10.80;;
13611;SDS011;6877;51.436;6.774;2023-06-22T03:50:06;20.30;;;11.13;;
13611;SDS011;6877;51.436;6.774;2023-06-22T03:52:32;16.13;;;11.63;;
13611;SDS011;6877;51.436;6.774;2023-06-22T03:54:59;22.13;;;12.48;;
13611;SDS011;6877;51.436;6.774;2023-06-22T03:57:25;16.40;;;12.18;;
13611;SDS011;6877;51.436;6.774;2023-06-22T03:59:53;16.80;;;11.30;;
13611;SDS011;6877;51.436;6.774;2023-06-22T04:02:22;17.60;;;11.88;;
13611;SDS011;6877;51.436;6.774;2023-06-22T04:04:49;18.55;;;12.73;;
13611;SDS011;6877;51.436;6.774;2023-06-22T04:07:15;18.30;;;12.80;;
13611;SDS011;6877;51.436;6.774;2023-06-22T04:09:47;20.83;;;12.43;;
13611;SDS011;6877;51.436;6.774;2023-06-22T04:12:13;19.10;;;11.95;;
13611;SDS011;6877;51.436;6.774;2023-06-22T04:14:45;21.08;;;12.77;;
13611;SDS011;6877;51.436;6.774;2023-06-22T04:17:16;19.65;;;14.32;;
13611;SDS011;6877;51.436;6.774;2023-06-22T04:19:43;20.08;;;12.23;;
13611;SDS011;6877;51.436;6.774;2023-06-22T04:22:10;19.90;;;13.30;;
13611;SDS011;6877;51.436;6.774;2023-06-22T04:24:36;17.98;;;11.93;;
13611;SDS011;6877;51.436;6.774;2023-06-22T04:27:03;17.48;;;12.00;;
13611;SDS011;6877;51.436;6.774;2023-06-22T04:29:30;19.17;;;12.45;;
13611;SDS011;6877;51.436;6.774;2023-06-22T04:31:56;19.35;;;13.18;;
13611;SDS011;6877;51.436;6.774;2023-06-22T04:34:24;19.42;;;12.35;;
13611;SDS011;6877;51.436;6.774;2023-06-22T04:36:54;17.58;;;12.65;;
13611;SDS011;6877;51.436;6.774;2023-06-22T04:39:21;17.30;;;13.02;;
13611;SDS011;6877;51.436;6.774;2023-06-22T04:41:47;16.02;;;12.35;;
13611;SDS011;6877;51.436;6.774;2023-06-22T04:44:19;18.20;;;12.50;;
13611;SDS011;6877;51.436;6.774;2023-06-22T04:46:58;18.50;;;12.70;;
13611;SDS011;6877;51.436;6.774;2023-06-22T04:49:39;24.17;;;14.32;;
13611;SDS011;6877;51.436;6.774;2023-06-22T04:52:10;18.70;;;13.05;;
13611;SDS011;6877;51.436;6.774;2023-06-22T04:54:39;16.90;;;11.55;;
13611;SDS011;6877;51.436;6.774;2023-06-22T04:57:13;21.55;;;15.30;;
13611;SDS011;6877;51.436;6.774;2023-06-22T04:59:45;23.42;;;14.82;;
13611;SDS011;6877;51.436;6.774;2023-06-22T05:02:12;25.95;;;13.68;;
13611;SDS011;6877;51.436;6.774;2023-06-22T05:04:38;19.02;;;13.75;;
13611;SDS011;6877;51.436;6.774;2023-06-22T05:07:05;17.52;;;13.15;;
13611;SDS011;6877;51.436;6.774;2023-06-22T05:09:31;26.52;;;16.20;;
13611;SDS011;6877;51.436;6.774;2023-06-22T05:11:59;19.83;;;13.25;;
13611;SDS011;6877;51.436;6.774;2023-06-22T05:14:28;22.02;;;15.52;;
13611;SDS011;6877;51.436;6.774;2023-06-22T05:16:56;22.67;;;15.20;;
13611;SDS011;6877;51.436;6.774;2023-06-22T05:19:29;25.02;;;15.38;;
13611;SDS011;6877;51.436;6.774;2023-06-22T05:21:59;24.05;;;14.38;;
13611;SDS011;6877;51.436;6.774;2023-06-22T05:24:30;22.48;;;12.90;;
13611;SDS011;6877;51.436;6.774;2023-06-22T05:26:57;21.73;;;14.27;;
13611;SDS011;6877;51.436;6.774;2023-06-22T05:29:28;20.23;;;14.88;;
13611;SDS011;6877;51.436;6.774;2023-06-22T05:31:55;19.98;;;12.55;;
13611;SDS011;6877;51.436;6.774;2023-06-22T05:34:26;17.58;;;11.82;;
13611;SDS011;6877;51.436;6.774;2023-06-22T05:36:58;21.80;;;11.90;;
13611;SDS011;6877;51.436;6.774;2023-06-22T05:39:25;24.38;;;14.70;;
13611;SDS011;6877;51.436;6.774;2023-06-22T05:41:57;28.13;;;14.20;;
13611;SDS011;6877;51.436;6.774;2023-06-22T05:44:23;17.70;;;11.52;;
13611;SDS011;6877;51.436;6.774;2023-06-22T05:46:49;18.65;;;13.15;;
13611;SDS011;6877;51.436;6.774;2023-06-22T05:49:16;17.90;;;12.80;;
13611;SDS011;6877;51.436;6.774;2023-06-22T05:51:42;16.17;;;11.90;;
13611;SDS011;6877;51.436;6.774;2023-06-22T05:54:09;21.63;;;14.75;;
13611;SDS011;6877;51.436;6.774;2023-06-22T05:56:36;25.00;;;14.88;;
13611;SDS011;6877;51.436;6.774;2023-06-22T05:59:02;20.23;;;13.00;;
13611;SDS011;6877;51.436;6.774;2023-06-22T06:01:35;29.48;;;13.52;;
13611;SDS011;6877;51.436;6.774;2023-06-22T06:04:06;20.98;;;15.10;;
13611;SDS011;6877;51.436;6.774;2023-06-22T06:06:41;20.52;;;15.23;;
13611;SDS011;6877;51.436;6.774;2023-06-22T06:09:07;24.42;;;15.88;;
13611;SDS011;6877;51.436;6.774;2023-06-22T06:11:33;22.13;;;14.77;;
13611;SDS011;6877;51.436;6.774;2023-06-22T06:14:05;21.75;;;15.15;;
13611;SDS011;6877;51.436;6.774;2023-06-22T06:16:37;19.05;;;13.10;;
13611;SDS011;6877;51.436;6.774;2023-06-22T06:19:08;25.73;;;15.88;;
13611;SDS011;6877;51.436;6.774;2023-06-22T06:21:35;23.55;;;16.73;;
13611;SDS011;6877;51.436;6.774;2023-06-22T06:24:07;27.52;;;17.70;;
13611;SDS011;6877;51.436;6.774;2023-06-22T06:26:33;49.13;;;18.77;;
13611;SDS011;6877;51.436;6.774;2023-06-22T06:29:06;25.65;;;16.45;;
13611;SDS011;6877;51.436;6.774;2023-06-22T06:31:38;19.77;;;14.18;;
13611;SDS011;6877;51.436;6.774;2023-06-22T06:34:04;24.10;;;16.00;;
13611;SDS011;6877;51.436;6.774;2023-06-22T06:36:30;21.90;;;15.57;;
13611;SDS011;6877;51.436;6.774;2023-06-22T06:39:02;26.30;;;16.42;;
13611;SDS011;6877;51.436;6.774;2023-06-22T06:41:34;22.80;;;14.57;;
13611;SDS011;6877;51.436;6.774;2023-06-22T06:44:01;24.80;;;16.95;;
13611;SDS011;6877;51.436;6.774;2023-06-22T06:46:27;24.05;;;16.92;;
13611;SDS011;6877;51.436;6.774;2023-06-22T06:48:54;24.95;;;17.52;;
13611;SDS011;6877;51.436;6.774;2023-06-22T06:51:25;29.23;;;19.20;;
13611;SDS011;6877;51.436;6.774;2023-06-22T06:53:52;27.45;;;18.20;;
13611;SDS011;6877;51.436;6.774;2023-06-22T06:56:18;27.85;;;18.70;;
13611;SDS011;6877;51.436;6.774;2023-06-22T06:58:44;31.75;;;20.08;;
13611;SDS011;6877;51.436;6.774;2023-06-22T07:01:16;26.48;;;18.95;;
13611;SDS011;6877;51.436;6.774;2023-06-22T07:03:43;29.25;;;18.48;;
13611;SDS011;6877;51.436;6.774;2023-06-22T07:06:14;29.65;;;18.40;;
13611;SDS011;6877;51.436;6.774;2023-06-22T07:08:47;23.67;;;17.30;;
13611;SDS011;6877;51.436;6.774;2023-06-22T07:11:18;33.35;;;17.77;;
13611;SDS011;6877;51.436;6.774;2023-06-22T07:13:45;29.52;;;18.73;;
13611;SDS011;6877;51.436;6.774;2023-06-22T07:16:11;26.70;;;17.08;;
13611;SDS011;6877;51.436;6.774;2023-06-22T07:18:39;33.28;;;17.98;;
13611;SDS011;6877;51.436;6.774;2023-06-22T07:21:11;33.08;;;18.83;;
13611;SDS011;6877;51.436;6.774;2023-06-22T07:23:37;24.60;;;15.95;;
13611;SDS011;6877;51.436;6.774;2023-06-22T07:26:08;29.90;;;17.98;;
13611;SDS011;6877;51.436;6.774;2023-06-22T07:28:40;24.95;;;17.27;;
13611;SDS011;6877;51.436;6.774;2023-06-22T07:31:07;25.67;;;18.27;;
13611;SDS011;6877;51.436;6.774;2023-06-22T07:33:38;23.83;;;17.73;;
13611;SDS011;6877;51.436;6.774;2023-06-22T07:36:05;29.73;;;19.05;;
13611;SDS011;6877;51.436;6.774;2023-06-22T07:38:35;31.70;;;19.42;;
13611;SDS011;6877;51.436;6.774;2023-06-22T07:41:06;27.58;;;19.02;;
13611;SDS011;6877;51.436;6.774;2023-06-22T07:43:32;31.58;;;19.83;;
13611;SDS011;6877;51.436;6.774;2023-06-22T07:46:00;24.23;;;18.23;;
13611;SDS011;6877;51.436;6.774;2023-06-22T07:48:27;34.72;;;21.80;;
13611;SDS011;6877;51.436;6.774;2023-06-22T07:50:58;27.80;;;18.58;;
13611;SDS011;6877;51.436;6.774;2023-06-22T07:53:24;30.27;;;21.73;;
13611;SDS011;6877;51.436;6.774;2023-06-22T07:55:56;28.42;;;19.23;;
13611;SDS011;6877;51.436;6.774;2023-06-22T07:58:27;31.90;;;21.92;;
13611;SDS011;6877;51.436;6.774;2023-06-22T08:00:59;32.03;;;23.27;;
13611;SDS011;6877;51.436;6.774;2023-06-22T08:03:25;32.80;;;21.40;;
13611;SDS011;6877;51.436;6.774;2023-06-22T08:05:52;33.95;;;21.63;;
13611;SDS011;6877;51.436;6.774;2023-06-22T08:08:23;30.38;;;22.85;;
13611;SDS011;6877;51.436;6.774;2023-06-22T08:10:50;29.25;;;20.33;;
13611;SDS011;6877;51.436;6.774;2023-06-22T08:13:16;28.48;;;20.48;;
13611;SDS011;6877;51.436;6.774;2023-06-22T08:15:48;36.85;;;24.85;;
13611;SDS011;6877;51.436;6.774;2023-06-22T08:18:15;41.10;;;24.77;;
13611;SDS011;6877;51.436;6.774;2023-06-22T08:20:42;38.72;;;25.73;;
13611;SDS011;6877;51.436;6.774;2023-06-22T08:23:13;29.50;;;21.67;;
13611;SDS011;6877;51.436;6.774;2023-06-22T08:25:40;28.63;;;21.60;;
13611;SDS011;6877;51.436;6.774;2023-06-22T08:28:06;36.33;;;22.00;;
13611;SDS011;6877;51.436;6.774;2023-06-22T08:30:38;35.08;;;23.88;;
13611;SDS011;6877;51.436;6.774;2023-06-22T08:33:05;34.60;;;21.77;;
13611;SDS011;6877;51.436;6.774;2023-06-22T08:35:36;27.60;;;18.92;;
13611;SDS011;6877;51.436;6.774;2023-06-22T08:38:07;30.75;;;21.48;;
13611;SDS011;6877;51.436;6.774;2023-06-22T08:40:34;26.65;;;19.30;;
13611;SDS011;6877;51.436;6.774;2023-06-22T08:43:06;29.38;;;20.30;;
13611;SDS011;6877;51.436;6.774;2023-06-22T08:45:37;26.05;;;18.50;;
13611;SDS011;6877;51.436;6.774;2023-06-22T08:48:04;24.23;;;17.50;;
13611;SDS011;6877;51.436;6.774;2023-06-22T08:50:35;27.75;;;18.27;;
13611;SDS011;6877;51.436;6.774;2023-06-22T08:53:02;26.08;;;18.38;;
13611;SDS011;6877;51.436;6.774;2023-06-22T08:55:28;28.38;;;19.80;;
13611;SDS011;6877;51.436;6.774;2023-06-22T08:57:55;27.35;;;20.88;;
13611;SDS011;6877;51.436;6.774;2023-06-22T09:00:21;36.80;;;21.30;;
13611;SDS011;6877;51.436;6.774;2023-06-22T09:02:48;30.88;;;20.88;;
13611;SDS011;6877;51.436;6.774;2023-06-22T09:05:19;26.35;;;18.90;;
13611;SDS011;6877;51.436;6.774;2023-06-22T09:07:53;24.52;;;17.00;;
13611;SDS011;6877;51.436;6.774;2023-06-22T09:10:27;32.45;;;20.00;;
13611;SDS011;6877;51.436;6.774;2023-06-22T09:12:53;28.85;;;19.80;;
13611;SDS011;6877;51.436;6.774;2023-06-22T09:15:20;27.33;;;18.77;;
13611;SDS011;6877;51.436;6.774;2023-06-22T09:17:47;21.52;;;15.15;;
13611;SDS011;6877;51.436;6.774;2023-06-22T09:20:18;24.67;;;17.60;;
13611;SDS011;6877;51.436;6.774;2023-06-22T09:22:45;29.90;;;19.10;;
13611;SDS011;6877;51.436;6.774;2023-06-22T09:25:12;22.67;;;16.35;;
13611;SDS011;6877;51.436;6.774;2023-06-22T09:27:38;26.52;;;16.40;;
13611;SDS011;6877;51.436;6.774;2023-06-22T09:30:05;24.13;;;17.58;;
13611;SDS011;6877;51.436;6.774;2023-06-22T09:32:37;21.77;;;14.82;;
13611;SDS011;6877;51.436;6.774;2023-06-22T09:35:04;19.23;;;14.93;;
13611;SDS011;6877;51.436;6.774;2023-06-22T09:37:40;20.58;;;14.35;;
13611;SDS011;6877;51.436;6.774;2023-06-22T09:40:07;22.00;;;12.40;;
13611;SDS011;6877;51.436;6.774;2023-06-22T09:42:36;19.90;;;14.68;;
13611;SDS011;6877;51.436;6.774;2023-06-22T09:45:03;26.48;;;16.70;;
13611;SDS011;6877;51.436;6.774;2023-06-22T09:47:30;18.73;;;14.10;;
13611;SDS011;6877;51.436;6.774;2023-06-22T09:49:57;22.98;;;12.93;;
13611;SDS011;6877;51.436;6.774;2023-06-22T09:52:30;22.27;;;13.75;;
13611;SDS011;6877;51.436;6.774;2023-06-22T09:54:57;20.85;;;13.15;;
13611;SDS011;6877;51.436;6.774;2023-06-22T09:57:28;20.70;;;11.88;;
13611;SDS011;6877;51.436;6.774;2023-06-22T10:00:00;16.98;;;12.75;;
13611;SDS011;6877;51.436;6.774;2023-06-22T10:02:27;18.45;;;13.98;;
13611;SDS011;6877;51.436;6.774;2023-06-22T10:04:53;24.60;;;13.25;;
13611;SDS011;6877;51.436;6.774;2023-06-22T10:07:20;20.77;;;13.48;;
13611;SDS011;6877;51.436;6.774;2023-06-22T10:09:47;18.05;;;13.90;;
13611;SDS011;6877;51.436;6.774;2023-06-22T10:12:13;20.92;;;13.13;;
13611;SDS011;6877;51.436;6.774;2023-06-22T10:14:39;16.92;;;12.55;;
13611;SDS011;6877;51.436;6.774;2023-06-22T10:17:11;18.48;;;12.18;;
13611;SDS011;6877;51.436;6.774;2023-06-22T10:19:38;17.92;;;12.77;;
13611;SDS011;6877;51.436;6.774;2023-06-22T10:22:04;16.13;;;11.73;;
13611;SDS011;6877;51.436;6.774;2023-06-22T10:24:36;17.45;;;10.50;;
13611;SDS011;6877;51.436;6.774;2023-06-22T10:27:04;16.13;;;10.82;;
13611;SDS011;6877;51.436;6.774;2023-06-22T10:29:31;25.50;;;11.63;;
13611;SDS011;6877;51.436;6.774;2023-06-22T10:31:57;17.48;;;13.15;;
13611;SDS011;6877;51.436;6.774;2023-06-22T10:34:29;17.58;;;13.27;;
13611;SDS011;6877;51.436;6.774;2023-06-22T10:37:00;14.13;;;10.75;;
13611;SDS011;6877;51.436;6.774;2023-06-22T10:39:26;20.05;;;12.65;;
13611;SDS011;6877;51.436;6.774;2023-06-22T10:41:58;17.90;;;11.63;;
13611;SDS011;6877;51.436;6.774;2023-06-22T10:44:24;17.95;;;11.65;;
13611;SDS011;6877;51.436;6.774;2023-06-22T10:46:51;19.08;;;12.25;;
13611;SDS011;6877;51.436;6.774;2023-06-22T10:49:22;17.02;;;13.45;;
13611;SDS011;6877;51.436;6.774;2023-06-22T10:51:49;17.65;;;13.05;;
13611;SDS011;6877;51.436;6.774;2023-06-22T10:54:15;16.98;;;12.93;;
13611;SDS011;6877;51.436;6.774;2023-06-22T10:56:49;16.65;;;13.23;;
13611;SDS011;6877;51.436;6.774;2023-06-22T10:59:20;17.15;;;13.07;;
13611;SDS011;6877;51.436;6.774;2023-06-22T11:01:49;17.35;;;13.00;;
13611;SDS011;6877;51.436;6.774;2023-06-22T11:04:16;16.45;;;11.32;;
13611;SDS011;6877;51.436;6.774;2023-06-22T11:06:43;17.50;;;13.50;;
13611;SDS011;6877;51.436;6.774;2023-06-22T11:09:15;14.98;;;11.32;;
13611;SDS011;6877;51.436;6.774;2023-06-22T11:11:46;16.15;;;9.68;;
13611;SDS011;6877;51.436;6.774;2023-06-22T11:14:14;17.10;;;12.52;;
13611;SDS011;6877;51.436;6.774;2023-06-22T11:16:45;19.92;;;14.10;;
13611;SDS011;6877;51.436;6.774;2023-06-22T11:19:15;17.75;;;12.93;;
13611;SDS011;6877;51.436;6.774;2023-06-22T11:21:41;16.13;;;11.57;;
13611;SDS011;6877;51.436;6.774;2023-06-22T11:24:08;17.95;;;11.32;;
13611;SDS011;6877;51.436;6.774;2023-06-22T11:26:34;19.25;;;13.65;;
13611;SDS011;6877;51.436;6.774;2023-06-22T11:29:01;18.38;;;14.43;;
13611;SDS011;6877;51.436;6.774;2023-06-22T11:31:31;19.80;;;15.13;;
13611;SDS011;6877;51.436;6.774;2023-06-22T11:34:03;26.95;;;19.50;;
13611;SDS011;6877;51.436;6.774;2023-06-22T11:36:30;24.60;;;15.50;;
13611;SDS011;6877;51.436;6.774;2023-06-22T11:38:59;20.80;;;14.80;;
13611;SDS011;6877;51.436;6.774;2023-06-22T11:41:30;23.02;;;16.52;;
13611;SDS011;6877;51.436;6.774;2023-06-22T11:43:57;32.45;;;19.95;;
13611;SDS011;6877;51.436;6.774;2023-06-22T11:46:23;31.00;;;20.45;;
13611;SDS011;6877;51.436;6.774;2023-06-22T11:48:55;39.15;;;23.90;;
13611;SDS011;6877;51.436;6.774;2023-06-22T11:51:21;38.25;;;25.77;;
13611;SDS011;6877;51.436;6.774;2023-06-22T11:53:48;35.22;;;23.27;;
13611;SDS011;6877;51.436;6.774;2023-06-22T11:56:19;36.45;;;24.17;;
13611;SDS011;6877;51.436;6.774;2023-06-22T11:58:50;33.53;;;23.40;;
13611;SDS011;6877;51.436;6.774;2023-06-22T12:01:22;40.70;;;26.33;;
13611;SDS011;6877;51.436;6.774;2023-06-22T12:03:48;39.15;;;25.20;;
13611;SDS011;6877;51.436;6.774;2023-06-22T12:06:20;35.85;;;25.58;;
13611;SDS011;6877;51.436;6.774;2023-06-22T12:08:49;36.58;;;22.92;;
13611;SDS011;6877;51.436;6.774;2023-06-22T12:11:20;36.35;;;23.98;;
13611;SDS011;6877;51.436;6.774;2023-06-22T12:13:46;46.70;;;31.77;;
13611;SDS011;6877;51.436;6.774;2023-06-22T12:16:18;36.20;;;24.02;;
13611;SDS011;6877;51.436;6.774;2023-06-22T12:18:46;43.50;;;28.73;;
13611;SDS011;6877;51.436;6.774;2023-06-22T12:21:12;41.97;;;29.80;;
13611;SDS011;6877;51.436;6.774;2023-06-22T12:23:43;45.72;;;28.25;;
13611;SDS011;6877;51.436;6.774;2023-06-22T12:26:15;44.00;;;28.27;;
13611;SDS011;6877;51.436;6.774;2023-06-22T12:28:47;48.40;;;31.65;;
13611;SDS011;6877;51.436;6.774;2023-06-22T12:31:14;52.78;;;32.85;;
13611;SDS011;6877;51.436;6.774;2023-06-22T12:33:40;49.25;;;33.80;;
13611;SDS011;6877;51.436;6.774;2023-06-22T12:36:07;45.53;;;31.48;;
13611;SDS011;6877;51.436;6.774;2023-06-22T12:38:39;49.20;;;33.20;;
13611;SDS011;6877;51.436;6.774;2023-06-22T12:41:05;44.13;;;31.08;;
13611;SDS011;6877;51.436;6.774;2023-06-22T12:43:37;46.15;;;30.95;;
13611;SDS011;6877;51.436;6.774;2023-06-22T12:46:03;42.85;;;29.02;;
13611;SDS011;6877;51.436;6.774;2023-06-22T12:48:35;49.35;;;33.00;;
13611;SDS011;6877;51.436;6.774;2023-06-22T12:51:07;47.22;;;31.55;;
13611;SDS011;6877;51.436;6.774;2023-06-22T12:53:40;47.67;;;31.33;;
13611;SDS011;6877;51.436;6.774;2023-06-22T12:56:06;46.25;;;34.03;;
13611;SDS011;6877;51.436;6.774;2023-06-22T12:58:33;44.95;;;31.08;;
13611;SDS011;6877;51.436;6.774;2023-06-22T13:00:59;45.78;;;28.55;;
13611;SDS011;6877;51.436;6.774;2023-06-22T13:03:26;49.42;;;33.40;;
13611;SDS011;6877;51.436;6.774;2023-06-22T13:05:53;50.85;;;35.85;;
13611;SDS011;6877;51.436;6.774;2023-06-22T13:08:20;51.10;;;34.45;;
13611;SDS011;6877;51.436;6.774;2023-06-22T13:10:47;49.05;;;34.53;;
13611;SDS011;6877;51.436;6.774;2023-06-22T13:13:13;50.22;;;36.08;;
13611;SDS011;6877;51.436;6.774;2023-06-22T13:15:45;61.65;;;38.72;;
13611;SDS011;6877;51.436;6.774;2023-06-22T13:18:11;52.38;;;35.85;;
13611;SDS011;6877;51.436;6.774;2023-06-22T13:20:43;53.42;;;35.90;;
13611;SDS011;6877;51.436;6.774;2023-06-22T13:23:11;57.00;;;37.65;;
13611;SDS011;6877;51.436;6.774;2023-06-22T13:25:43;54.83;;;36.40;;
13611;SDS011;6877;51.436;6.774;2023-06-22T13:28:14;59.10;;;37.60;;
13611;SDS011;6877;51.436;6.774;2023-06-22T13:30:42;54.78;;;39.22;;
13611;SDS011;6877;51.436;6.774;2023-06-22T13:33:09;58.28;;;37.83;;
13611;SDS011;6877;51.436;6.774;2023-06-22T13:35:35;56.67;;;38.88;;
13611;SDS011;6877;51.436;6.774;2023-06-22T13:38:02;55.78;;;37.92;;
13611;SDS011;6877;51.436;6.774;2023-06-22T13:40:28;56.30;;;37.63;;
13611;SDS011;6877;51.436;6.774;2023-06-22T13:42:59;59.15;;;37.83;;
13611;SDS011;6877;51.436;6.774;2023-06-22T13:45:31;48.58;;;34.05;;
13611;SDS011;6877;51.436;6.774;2023-06-22T13:48:04;48.65;;;33.38;;
13611;SDS011;6877;51.436;6.774;2023-06-22T13:50:30;47.15;;;32.15;;
13611;SDS011;6877;51.436;6.774;2023-06-22T13:53:02;49.45;;;35.08;;
13611;SDS011;6877;51.436;6.774;2023-06-22T13:55:33;53.10;;;36.17;;
13611;SDS011;6877;51.436;6.774;2023-06-22T13:58:00;47.55;;;33.65;;
13611;SDS011;6877;51.436;6.774;2023-06-22T14:00:26;48.63;;;34.72;;
13611;SDS011;6877;51.436;6.774;2023-06-22T14:02:59;46.20;;;31.63;;
13611;SDS011;6877;51.436;6.774;2023-06-22T14:05:25;40.67;;;29.98;;
13611;SDS011;6877;51.436;6.774;2023-06-22T14:07:56;41.78;;;30.25;;
13611;SDS011;6877;51.436;6.774;2023-06-22T14:10:28;39.45;;;29.42;;
13611;SDS011;6877;51.436;6.774;2023-06-22T14:12:54;34.00;;;27.58;;
13611;SDS011;6877;51.436;6.774;2023-06-22T14:15:21;36.03;;;29.35;;
13611;SDS011;6877;51.436;6.774;2023-06-22T14:17:47;39.47;;;28.60;;
13611;SDS011;6877;51.436;6.774;2023-06-22T14:20:14;36.67;;;28.15;;
13611;SDS011;6877;51.436;6.774;2023-06-22T14:22:40;37.97;;;28.73;;
13611;SDS011;6877;51.436;6.774;2023-06-22T14:25:08;37.72;;;28.95;;
13611;SDS011;6877;51.436;6.774;2023-06-22T14:27:35;36.97;;;27.02;;
13611;SDS011;6877;51.436;6.774;2023-06-22T14:30:06;40.25;;;28.50;;
13611;SDS011;6877;51.436;6.774;2023-06-22T14:32:38;41.92;;;29.55;;
13611;SDS011;6877;51.436;6.774;2023-06-22T14:35:04;40.92;;;30.55;;
13611;SDS011;6877;51.436;6.774;2023-06-22T14:37:31;36.40;;;27.85;;
13611;SDS011;6877;51.436;6.774;2023-06-22T14:40:02;40.53;;;29.48;;
13611;SDS011;6877;51.436;6.774;2023-06-22T14:42:29;42.53;;;29.15;;
13611;SDS011;6877;51.436;6.774;2023-06-22T14:44:56;37.47;;;29.15;;
13611;SDS011;6877;51.436;6.774;2023-06-22T14:47:27;38.17;;;28.42;;
13611;SDS011;6877;51.436;6.774;2023-06-22T14:49:59;35.67;;;27.40;;
13611;SDS011;6877;51.436;6.774;2023-06-22T14:52:33;43.30;;;28.25;;
13611;SDS011;6877;51.436;6.774;2023-06-22T14:55:05;35.10;;;25.98;;
13611;SDS011;6877;51.436;6.774;2023-06-22T14:57:37;40.45;;;28.85;;